Observation data for Aspermont on 11/17/2019      Previous  Date  Next       Current Mesonet Observations  Soil Data  Daily Summary Page  Observations in Plain Language
KASR 170600Z 18007KT 08/04 A2997 RMK A01 T00770040  RH  079%=      5-min Rain = 0
KASR 170605Z 17007KT 08/04 A2997 RMK A01 T00760040  RH  079%=      5-min Rain = 0
KASR 170610Z 17006KT 08/04 A2997 RMK A01 T00770041  RH  079%=      5-min Rain = 0
KASR 170615Z 17005KT 08/04 A2997 RMK A01 T00780041  RH  078%=      5-min Rain = 0
KASR 170620Z 17005KT 08/04 A2997 RMK A01 T00790042  RH  078%=      5-min Rain = 0
KASR 170625Z 18006KT 08/04 A2997 RMK A01 T00800042  RH  078%=      5-min Rain = 0
KASR 170630Z 18005KT 08/04 A2998 RMK A01 T00780041  RH  079%=      5-min Rain = 0
KASR 170635Z 18005KT 08/04 A2998 RMK A01 T00750040  RH  080%=      5-min Rain = 0
KASR 170640Z 19004KT 07/04 A2998 RMK A01 T00740040  RH  080%=      5-min Rain = 0
KASR 170645Z 19003KT 07/04 A2998 RMK A01 T00720040  RH  081%=      5-min Rain = 0
KASR 170650Z 19003KT 07/04 A2998 RMK A01 T00730040  RH  081%=      5-min Rain = 0
KASR 170655Z 19003KT 07/04 A2998 RMK A01 T00720039  RH  080%=      5-min Rain = 0
KASR 170700Z 20003KT 07/04 A2998 RMK A01 T00700038  RH  081%=      5-min Rain = 0
KASR 170705Z 21003KT 07/04 A2998 RMK A01 T00680037  RH  082%=      5-min Rain = 0
KASR 170710Z 20003KT 07/04 A2998 RMK A01 T00660036  RH  082%=      5-min Rain = 0
KASR 170715Z 20002KT 06/04 A2998 RMK A01 T00630035  RH  083%=      5-min Rain = 0
KASR 170720Z 20003KT 06/03 A2998 RMK A01 T00590033  RH  085%=      5-min Rain = 0
KASR 170725Z 20004KT 06/03 A2998 RMK A01 T00560033  RH  086%=      5-min Rain = 0
KASR 170730Z 20003KT 05/03 A2998 RMK A01 T00540031  RH  086%=      5-min Rain = 0
KASR 170735Z 21003KT 06/03 A2998 RMK A01 T00550032  RH  086%=      5-min Rain = 0
KASR 170740Z 21004KT 05/03 A2997 RMK A01 T00530031  RH  087%=      5-min Rain = 0
KASR 170745Z 21003KT 05/03 A2997 RMK A01 T00530033  RH  088%=      5-min Rain = 0
KASR 170750Z 22004KT 06/04 A2998 RMK A01 T00580037  RH  087%=      5-min Rain = 0
KASR 170755Z 21003KT 06/04 A2998 RMK A01 T00600035  RH  085%=      5-min Rain = 0
KASR 170800Z 22003KT 06/03 A2998 RMK A01 T00570033  RH  086%=      5-min Rain = 0
KASR 170805Z 22004KT 06/03 A2998 RMK A01 T00560034  RH  087%=      5-min Rain = 0
KASR 170810Z 20004KT 06/03 A2998 RMK A01 T00570034  RH  087%=      5-min Rain = 0
KASR 170815Z 18004KT 06/03 A2997 RMK A01 T00570034  RH  086%=      5-min Rain = 0
KASR 170820Z 17003KT 06/03 A2997 RMK A01 T00570034  RH  086%=      5-min Rain = 0
KASR 170825Z 17004KT 05/03 A2997 RMK A01 T00540032  RH  087%=      5-min Rain = 0
KASR 170830Z 16004KT 05/03 A2997 RMK A01 T00510030  RH  088%=      5-min Rain = 0
KASR 170835Z 17005KT 05/03 A2997 RMK A01 T00520033  RH  089%=      5-min Rain = 0
KASR 170840Z 18005KT 06/04 A2997 RMK A01 T00550035  RH  088%=      5-min Rain = 0
KASR 170845Z 17005KT 06/03 A2997 RMK A01 T00550034  RH  087%=      5-min Rain = 0
KASR 170850Z 16005KT 05/03 A2997 RMK A01 T00530033  RH  088%=      5-min Rain = 0
KASR 170855Z 15005KT 05/03 A2997 RMK A01 T00510032  RH  089%=      5-min Rain = 0
KASR 170900Z 15005KT 05/03 A2997 RMK A01 T00490031  RH  089%=      5-min Rain = 0
KASR 170905Z 15004KT 05/03 A2997 RMK A01 T00480031  RH  090%=      5-min Rain = 0
KASR 170910Z 16004KT 05/03 A2997 RMK A01 T00490032  RH  090%=      5-min Rain = 0
KASR 170915Z 17005KT 05/03 A2997 RMK A01 T00520034  RH  089%=      5-min Rain = 0
KASR 170920Z 18007KT 06/04 A2996 RMK A01 T00550035  RH  088%=      5-min Rain = 0
KASR 170925Z 19006KT 06/04 A2997 RMK A01 T00550035  RH  088%=      5-min Rain = 0
KASR 170930Z 18004KT 06/04 A2997 RMK A01 T00550035  RH  088%=      5-min Rain = 0
KASR 170935Z 16003KT 06/04 A2998 RMK A01 T00550035  RH  088%=      5-min Rain = 0
KASR 170940Z 16004KT 05/02 A2998 RMK A01 T00460022  RH  085%=      5-min Rain = 0
KASR 170945Z 17005KT 04/02 A2998 RMK A01 T00420024  RH  089%=      5-min Rain = 0
KASR 170950Z 17006KT 05/03 A2997 RMK A01 T00490033  RH  090%=      5-min Rain = 0
KASR 170955Z 17006KT 05/03 A2998 RMK A01 T00500032  RH  089%=      5-min Rain = 0
KASR 171000Z 16003KT 05/03 A2998 RMK A01 T00490031  RH  089%=      5-min Rain = 0
KASR 171005Z 14002KT 05/03 A2999 RMK A01 T00480030  RH  089%=      5-min Rain = 0
KASR 171010Z 17002KT 05/03 A2998 RMK A01 T00460029  RH  090%=      5-min Rain = 0
KASR 171015Z 17003KT 05/03 A2998 RMK A01 T00450027  RH  089%=      5-min Rain = 0
KASR 171020Z 14003KT 04/02 A2999 RMK A01 T00400023  RH  090%=      5-min Rain = 0
KASR 171025Z 14003KT 04/02 A2999 RMK A01 T00360021  RH  091%=      5-min Rain = 0
KASR 171030Z 15003KT 03/01 A2998 RMK A01 T00270012  RH  091%=      5-min Rain = 0
KASR 171035Z 15004KT 03/01 A2998 RMK A01 T00260013  RH  092%=      5-min Rain = 0
KASR 171040Z 17003KT 03/01 A2999 RMK A01 T00250014  RH  093%=      5-min Rain = 0
KASR 171045Z 17003KT 03/02 A2998 RMK A01 T00270017  RH  094%=      5-min Rain = 0
KASR 171050Z 17004KT 03/02 A2998 RMK A01 T00270017  RH  094%=      5-min Rain = 0
KASR 171055Z 17003KT 03/01 A2998 RMK A01 T00250014  RH  094%=      5-min Rain = 0
KASR 171100Z 20001KT 02/01 A2999 RMK A01 T00230013  RH  094%=      5-min Rain = 0
KASR 171105Z 27001KT 02/01 A2999 RMK A01 T00230014  RH  095%=      5-min Rain = 0
KASR 171110Z 23001KT 02/02 A2999 RMK A01 T00240015  RH  095%=      5-min Rain = 0
KASR 171115Z 23002KT 03/02 A2999 RMK A01 T00250016  RH  095%=      5-min Rain = 0
KASR 171120Z 26002KT 03/02 A2999 RMK A01 T00250016  RH  095%=      5-min Rain = 0
KASR 171125Z 29003KT 02/01 A30 RMK A01 T00220013  RH  095%=      5-min Rain = 0
KASR 171130Z 28003KT 02/01 A30 RMK A01 T00220013  RH  095%=      5-min Rain = 0
KASR 171135Z 27003KT 02/02 A30 RMK A01 T00230015  RH  096%=      5-min Rain = 0
KASR 171140Z 26004KT 02/01 A30 RMK A01 T00220014  RH  096%=      5-min Rain = 0
KASR 171145Z 25003KT 02/02 A3001 RMK A01 T00230015  RH  096%=      5-min Rain = 0
KASR 171150Z 24003KT 02/02 A3001 RMK A01 T00240017  RH  096%=      5-min Rain = 0
KASR 171155Z 24003KT 02/02 A3001 RMK A01 T00240017  RH  096%=      5-min Rain = 0
KASR 171200Z 23003KT 02/02 A3001 RMK A01 T00240017  RH  096%=      5-min Rain = 0
KASR 171205Z 23003KT 02/02 A3001 RMK A01 T00230016  RH  096%=      5-min Rain = 0
KASR 171210Z 22003KT 02/02 A3001 RMK A01 T00240017  RH  096%=      5-min Rain = 0
KASR 171215Z 24003KT 03/02 A3002 RMK A01 T00250017  RH  096%=      5-min Rain = 0
KASR 171220Z 27005KT 03/02 A3002 RMK A01 T00280021  RH  096%=      5-min Rain = 0
KASR 171225Z 28005KT 03/02 A3003 RMK A01 T00270019  RH  096%=      5-min Rain = 0
KASR 171230Z 29006KT 03/02 A3003 RMK A01 T00300022  RH  096%=      5-min Rain = 0
KASR 171235Z 30007KT 04/03 A3003 RMK A01 T00370029  RH  096%=      5-min Rain = 0
KASR 171240Z 31006KT 04/03 A3004 RMK A01 T00400029  RH  094%=      5-min Rain = 0
KASR 171245Z 32006KT 04/03 A3004 RMK A01 T00410028  RH  092%=      5-min Rain = 0
KASR 171250Z 34008KT 05/03 A3004 RMK A01 T00450031  RH  092%=      5-min Rain = 0
KASR 171255Z 34008KT 05/03 A3005 RMK A01 T00470029  RH  089%=      5-min Rain = 0
KASR 171300Z 34006KT 04/03 A3005 RMK A01 T00430026  RH  090%=      5-min Rain = 0
KASR 171305Z 34006KT 04/03 A3005 RMK A01 T00400025  RH  091%=      5-min Rain = 0
KASR 171310Z 34007KT 04/03 A3005 RMK A01 T00410027  RH  092%=      5-min Rain = 0
KASR 171315Z 35009KT 05/03 A3005 RMK A01 T00480030  RH  089%=      5-min Rain = 0
KASR 171320Z 34009KT 05/03 A3006 RMK A01 T00510029  RH  087%=      5-min Rain = 0
KASR 171325Z 34009KT 05/03 A3006 RMK A01 T00520029  RH  086%=      5-min Rain = 0
KASR 171330Z 34008KT 05/03 A3006 RMK A01 T00510028  RH  086%=      5-min Rain = 0
KASR 171335Z 34009KT 05/03 A3006 RMK A01 T00530028  RH  085%=      5-min Rain = 0
KASR 171340Z 35010KT 06/03 A3007 RMK A01 T00550028  RH  084%=      5-min Rain = 0
KASR 171345Z 35009G14KT 06/03 A3007 RMK A01 T00580029  RH  083%=      5-min Rain = 0
KASR 171350Z 36010G16KT 06/03 A3008 RMK A01 T00630029  RH  080%=      5-min Rain = 0
KASR 171355Z 00011KT 07/03 A3008 RMK A01 T00680029  RH  077%=      5-min Rain = 0
KASR 171400Z 00011G16KT 07/03 A3008 RMK A01 T00720029  RH  075%=      5-min Rain = 0
KASR 171405Z 00011G18KT 08/03 A3008 RMK A01 T00760029  RH  073%=      5-min Rain = 0
KASR 171410Z 36012KT 08/03 A3009 RMK A01 T00790029  RH  072%=      5-min Rain = 0
KASR 171415Z 35012KT 08/03 A3009 RMK A01 T00820030  RH  071%=      5-min Rain = 0
KASR 171420Z 36012G17KT 08/03 A3009 RMK A01 T00840029  RH  069%=      5-min Rain = 0
KASR 171425Z 36014G19KT 09/03 A3009 RMK A01 T00880029  RH  067%=      5-min Rain = 0
KASR 171430Z 36016G23KT 09/03 A301 RMK A01 T00910027  RH  065%=      5-min Rain = 0
KASR 171435Z 36016G25KT 09/03 A301 RMK A01 T00940027  RH  064%=      5-min Rain = 0
KASR 171440Z 36017G23KT 10/03 A301 RMK A01 T00970026  RH  062%=      5-min Rain = 0
KASR 171445Z 36018G26KT 10/03 A301 RMK A01 T00990026  RH  061%=      5-min Rain = 0
KASR 171450Z 00017G24KT 10/03 A301 RMK A01 T01020025  RH  060%=      5-min Rain = 0
KASR 171455Z 36017G22KT 10/03 A301 RMK A01 T01040026  RH  059%=      5-min Rain = 0
KASR 171500Z 36016G24KT 11/03 A301 RMK A01 T01070026  RH  058%=      5-min Rain = 0
KASR 171505Z 00019G24KT 11/03 A3011 RMK A01 T01090025  RH  057%=      5-min Rain = 0
KASR 171510Z 00016G23KT 11/03 A3011 RMK A01 T01110025  RH  056%=      5-min Rain = 0
KASR 171515Z 01020G26KT 11/03 A3011 RMK A01 T01130025  RH  055%=      5-min Rain = 0
KASR 171520Z 00016G24KT 12/03 A3011 RMK A01 T01160026  RH  055%=      5-min Rain = 0
KASR 171525Z 00020G26KT 12/03 A3011 RMK A01 T01180025  RH  054%=      5-min Rain = 0
KASR 171530Z 01018G24KT 12/03 A3011 RMK A01 T01190025  RH  053%=      5-min Rain = 0
KASR 171535Z 00019G27KT 12/03 A3011 RMK A01 T01210026  RH  053%=      5-min Rain = 0
KASR 171540Z 01019G26KT 12/03 A3011 RMK A01 T01230026  RH  052%=      5-min Rain = 0
KASR 171545Z 01020G26KT 12/03 A3011 RMK A01 T01230026  RH  052%=      5-min Rain = 0
KASR 171550Z 02017G23KT 13/03 A3011 RMK A01 T01260027  RH  052%=      5-min Rain = 0
KASR 171555Z 02019G25KT 13/03 A3011 RMK A01 T01280026  RH  051%=      5-min Rain = 0
KASR 171600Z 01017G23KT 13/03 A3011 RMK A01 T01290027  RH  050%=      5-min Rain = 0
KASR 171605Z 01019G25KT 13/03 A3011 RMK A01 T01310027  RH  050%=      5-min Rain = 0
KASR 171610Z 01016G22KT 13/03 A3011 RMK A01 T01340028  RH  049%=      5-min Rain = 0
KASR 171615Z 01016G23KT 14/03 A3011 RMK A01 T01370029  RH  049%=      5-min Rain = 0
KASR 171620Z 00015G22KT 14/03 A3012 RMK A01 T01380029  RH  048%=      5-min Rain = 0
KASR 171625Z 01016G22KT 14/03 A3012 RMK A01 T01400029  RH  048%=      5-min Rain = 0
KASR 171630Z 02016G24KT 14/03 A3012 RMK A01 T01390029  RH  048%=      5-min Rain = 0
KASR 171635Z 01017G23KT 14/03 A3012 RMK A01 T01400029  RH  048%=      5-min Rain = 0
KASR 171640Z 02016G23KT 14/03 A3012 RMK A01 T01430030  RH  047%=      5-min Rain = 0
KASR 171645Z 01014G20KT 14/03 A3012 RMK A01 T01440031  RH  047%=      5-min Rain = 0
KASR 171650Z 00014G20KT 15/03 A3012 RMK A01 T01450031  RH  047%=      5-min Rain = 0
KASR 171655Z 00015G21KT 15/03 A3012 RMK A01 T01470032  RH  047%=      5-min Rain = 0
KASR 171700Z 00016G23KT 15/03 A3011 RMK A01 T01490032  RH  046%=      5-min Rain = 0
KASR 171705Z 00013G21KT 15/03 A3011 RMK A01 T01500034  RH  046%=      5-min Rain = 0
KASR 171710Z 01015G20KT 15/03 A3011 RMK A01 T01510032  RH  045%=      5-min Rain = 0
KASR 171715Z 00013G19KT 15/03 A3011 RMK A01 T01540034  RH  045%=      5-min Rain = 0
KASR 171720Z 00015KT 16/03 A3011 RMK A01 T01550033  RH  044%=      5-min Rain = 0
KASR 171725Z 01014G21KT 15/03 A3011 RMK A01 T01540032  RH  044%=      5-min Rain = 0
KASR 171730Z 01014G19KT 16/03 A3011 RMK A01 T01550032  RH  044%=      5-min Rain = 0
KASR 171735Z 01012G17KT 16/03 A3011 RMK A01 T01570033  RH  044%=      5-min Rain = 0
KASR 171740Z 01011KT 16/03 A3011 RMK A01 T01600033  RH  043%=      5-min Rain = 0
KASR 171745Z 00012G17KT 16/03 A301 RMK A01 T01600033  RH  043%=      5-min Rain = 0
KASR 171750Z 36011G16KT 16/03 A301 RMK A01 T01620034  RH  043%=      5-min Rain = 0
KASR 171755Z 00012G19KT 17/03 A301 RMK A01 T01650034  RH  042%=      5-min Rain = 0
KASR 171800Z 00010G15KT 17/03 A301 RMK A01 T01670033  RH  041%=      5-min Rain = 0
KASR 171805Z 36012G17KT 17/03 A301 RMK A01 T01670034  RH  042%=      5-min Rain = 0
KASR 171810Z 00012G18KT 17/03 A301 RMK A01 T01690034  RH  041%=      5-min Rain = 0
KASR 171815Z 35014G19KT 17/03 A301 RMK A01 T01690033  RH  041%=      5-min Rain = 0
KASR 171820Z 00013KT 17/03 A301 RMK A01 T01690033  RH  041%=      5-min Rain = 0
KASR 171825Z 00013KT 17/03 A301 RMK A01 T01700034  RH  041%=      5-min Rain = 0
KASR 171830Z 36012G17KT 17/03 A3009 RMK A01 T01710034  RH  041%=      5-min Rain = 0
KASR 171835Z 01009G17KT 17/04 A3009 RMK A01 T01730035  RH  040%=      5-min Rain = 0
KASR 171840Z 35010G17KT 17/04 A3009 RMK A01 T01720035  RH  041%=      5-min Rain = 0
KASR 171845Z 01011G16KT 18/04 A3009 RMK A01 T01780036  RH  039%=      5-min Rain = 0
KASR 171850Z 02012KT 17/03 A3009 RMK A01 T01730034  RH  040%=      5-min Rain = 0
KASR 171855Z 00012G18KT 18/04 A3008 RMK A01 T01770035  RH  039%=      5-min Rain = 0
KASR 171900Z 00011G17KT 17/04 A3008 RMK A01 T01740035  RH  040%=      5-min Rain = 0
KASR 171905Z 02010G16KT 18/04 A3008 RMK A01 T01760036  RH  040%=      5-min Rain = 0
KASR 171910Z 01013KT 18/04 A3008 RMK A01 T01770036  RH  039%=      5-min Rain = 0
KASR 171915Z 36014KT 18/04 A3008 RMK A01 T01780035  RH  039%=      5-min Rain = 0
KASR 171920Z 00012G20KT 18/04 A3008 RMK A01 T01800035  RH  039%=      5-min Rain = 0
KASR 171925Z 01012G18KT 18/04 A3008 RMK A01 T01830035  RH  038%=      5-min Rain = 0
KASR 171930Z 00012G20KT 18/04 A3008 RMK A01 T01820036  RH  038%=      5-min Rain = 0
KASR 171935Z 00013G19KT 18/04 A3007 RMK A01 T01820035  RH  038%=      5-min Rain = 0
KASR 171940Z 02013KT 18/03 A3007 RMK A01 T01830031  RH  037%=      5-min Rain = 0
KASR 171945Z 00013G18KT 18/03 A3007 RMK A01 T01830033  RH  037%=      5-min Rain = 0
KASR 171950Z 01011G16KT 18/03 A3007 RMK A01 T01820033  RH  038%=      5-min Rain = 0
KASR 171955Z 36012G17KT 18/03 A3007 RMK A01 T01830034  RH  038%=      5-min Rain = 0
KASR 172000Z 35014G20KT 18/03 A3007 RMK A01 T01830034  RH  037%=      5-min Rain = 0
KASR 172005Z 01011G16KT 19/03 A3007 RMK A01 T01850034  RH  037%=      5-min Rain = 0
KASR 172010Z 01012KT 19/03 A3007 RMK A01 T01860034  RH  037%=      5-min Rain = 0
KASR 172015Z 36013G18KT 19/03 A3007 RMK A01 T01870034  RH  037%=      5-min Rain = 0
KASR 172020Z 00012KT 19/04 A3007 RMK A01 T01860035  RH  037%=      5-min Rain = 0
KASR 172025Z 36011G16KT 19/04 A3006 RMK A01 T01870036  RH  037%=      5-min Rain = 0
KASR 172030Z 00012G17KT 19/04 A3006 RMK A01 T01890037  RH  037%=      5-min Rain = 0
KASR 172035Z 36011G17KT 19/04 A3006 RMK A01 T01880037  RH  037%=      5-min Rain = 0
KASR 172040Z 35014KT 19/04 A3006 RMK A01 T01870036  RH  037%=      5-min Rain = 0
KASR 172045Z 36012G17KT 18/04 A3006 RMK A01 T01830035  RH  038%=      5-min Rain = 0
KASR 172050Z 00010G17KT 19/04 A3006 RMK A01 T01850037  RH  038%=      5-min Rain = 0
KASR 172055Z 01012G17KT 19/04 A3005 RMK A01 T01850036  RH  038%=      5-min Rain = 0
KASR 172100Z 02011KT 19/04 A3005 RMK A01 T01850035  RH  037%=      5-min Rain = 0
KASR 172105Z 00009KT 19/04 A3005 RMK A01 T01850036  RH  038%=      5-min Rain = 0
KASR 172110Z 34011G16KT 19/04 A3005 RMK A01 T01850036  RH  038%=      5-min Rain = 0
KASR 172115Z 35009KT 18/04 A3005 RMK A01 T01840037  RH  038%=      5-min Rain = 0
KASR 172120Z 02010KT 19/04 A3005 RMK A01 T01870037  RH  037%=      5-min Rain = 0
KASR 172125Z 00008G14KT 19/04 A3005 RMK A01 T01850036  RH  038%=      5-min Rain = 0
KASR 172130Z 36010KT 18/04 A3005 RMK A01 T01830037  RH  038%=      5-min Rain = 0
KASR 172135Z 01010KT 18/04 A3005 RMK A01 T01830037  RH  038%=      5-min Rain = 0
KASR 172140Z 00009KT 18/04 A3005 RMK A01 T01810037  RH  039%=      5-min Rain = 0
KASR 172145Z 02007KT 18/04 A3005 RMK A01 T01840037  RH  038%=      5-min Rain = 0
KASR 172150Z 01008G14KT 18/04 A3005 RMK A01 T01820036  RH  038%=      5-min Rain = 0
KASR 172155Z 36004KT 18/04 A3005 RMK A01 T01820036  RH  038%=      5-min Rain = 0
KASR 172200Z 35008KT 18/04 A3005 RMK A01 T01840037  RH  038%=      5-min Rain = 0
KASR 172205Z 35008KT 18/04 A3005 RMK A01 T01810037  RH  039%=      5-min Rain = 0
KASR 172210Z 01006KT 18/04 A3005 RMK A01 T01810037  RH  039%=      5-min Rain = 0
KASR 172215Z 02005KT 18/04 A3005 RMK A01 T01820037  RH  039%=      5-min Rain = 0
KASR 172220Z 36007KT 18/04 A3005 RMK A01 T01810037  RH  039%=      5-min Rain = 0
KASR 172225Z 35006KT 18/04 A3005 RMK A01 T01800037  RH  039%=      5-min Rain = 0
KASR 172230Z 34006KT 18/04 A3005 RMK A01 T01790037  RH  039%=      5-min Rain = 0
KASR 172235Z 35007KT 18/04 A3005 RMK A01 T01790037  RH  039%=      5-min Rain = 0
KASR 172240Z 36007KT 18/04 A3005 RMK A01 T01780037  RH  039%=      5-min Rain = 0
KASR 172245Z 34006KT 18/04 A3005 RMK A01 T01760036  RH  040%=      5-min Rain = 0
KASR 172250Z 35007G12KT 17/04 A3005 RMK A01 T01740036  RH  040%=      5-min Rain = 0
KASR 172255Z 35007KT 17/04 A3005 RMK A01 T01740037  RH  041%=      5-min Rain = 0
KASR 172300Z 34005KT 17/04 A3005 RMK A01 T01710036  RH  041%=      5-min Rain = 0
KASR 172305Z 34005KT 17/04 A3005 RMK A01 T01700035  RH  041%=      5-min Rain = 0
KASR 172310Z 00004KT 17/04 A3005 RMK A01 T01650037  RH  043%=      5-min Rain = 0
KASR 172315Z 01004KT 16/04 A3005 RMK A01 T01640037  RH  043%=      5-min Rain = 0
KASR 172320Z 01004KT 16/04 A3006 RMK A01 T01600036  RH  044%=      5-min Rain = 0
KASR 172325Z 02004KT 16/04 A3006 RMK A01 T01550035  RH  045%=      5-min Rain = 0
KASR 172330Z 02005KT 15/04 A3005 RMK A01 T01530035  RH  046%=      5-min Rain = 0
KASR 172335Z 01006KT 15/04 A3005 RMK A01 T01470035  RH  048%=      5-min Rain = 0
KASR 172340Z 01006KT 14/04 A3005 RMK A01 T01420035  RH  049%=      5-min Rain = 0
KASR 172345Z 01006KT 14/04 A3006 RMK A01 T01400036  RH  050%=      5-min Rain = 0
KASR 172350Z 01006KT 14/04 A3006 RMK A01 T01390035  RH  050%=      5-min Rain = 0
KASR 172355Z 01005KT 14/04 A3006 RMK A01 T01380036  RH  051%=      5-min Rain = 0
KASR 180000Z 01004KT 14/04 A3006 RMK A01 T01360035  RH  051%=      5-min Rain = 0
KASR 180005Z 00002KT 13/03 A3006 RMK A01 T01300034  RH  053%=      5-min Rain = 0
KASR 180010Z 35002KT 12/03 A3006 RMK A01 T01210033  RH  055%=      5-min Rain = 0
KASR 180015Z 01002KT 11/03 A3006 RMK A01 T01110031  RH  058%=      5-min Rain = 0
KASR 180020Z 01003KT 11/03 A3007 RMK A01 T01050031  RH  061%=      5-min Rain = 0
KASR 180025Z 01001KT 10/03 A3007 RMK A01 T01000031  RH  063%=      5-min Rain = 0
KASR 180030Z 04001KT 10/03 A3007 RMK A01 T00950029  RH  064%=      5-min Rain = 0
KASR 180035Z 03001KT 09/03 A3007 RMK A01 T00860026  RH  067%=      5-min Rain = 0
KASR 180040Z 02001KT 08/03 A3007 RMK A01 T00800027  RH  070%=      5-min Rain = 0
KASR 180045Z 01002KT 08/03 A3007 RMK A01 T00830032  RH  071%=      5-min Rain = 0
KASR 180050Z 03004KT 09/04 A3008 RMK A01 T00930035  RH  068%=      5-min Rain = 0
KASR 180055Z 02003KT 10/03 A3008 RMK A01 T01040034  RH  062%=      5-min Rain = 0
KASR 180100Z 01002KT 10/03 A3008 RMK A01 T01040033  RH  062%=      5-min Rain = 0
KASR 180105Z 32001KT 10/03 A3008 RMK A01 T01010033  RH  064%=      5-min Rain = 0
KASR 180110Z 31001KT 09/03 A3008 RMK A01 T00910032  RH  067%=      5-min Rain = 0
KASR 180115Z 29002KT 08/03 A3008 RMK A01 T00810026  RH  069%=      5-min Rain = 0
KASR 180120Z 31003KT 08/03 A3008 RMK A01 T00760027  RH  072%=      5-min Rain = 0
KASR 180125Z 34004KT 08/03 A3008 RMK A01 T00780031  RH  073%=      5-min Rain = 0
KASR 180130Z 33003KT 08/03 A3008 RMK A01 T00790030  RH  072%=      5-min Rain = 0
KASR 180135Z 34004KT 08/03 A3008 RMK A01 T00800030  RH  072%=      5-min Rain = 0
KASR 180140Z 34005KT 08/03 A3008 RMK A01 T00780028  RH  072%=      5-min Rain = 0
KASR 180145Z 34004KT 08/03 A3008 RMK A01 T00770029  RH  072%=      5-min Rain = 0
KASR 180150Z 35004KT 08/03 A3008 RMK A01 T00790029  RH  072%=      5-min Rain = 0
KASR 180155Z 35006KT 08/03 A3008 RMK A01 T00820029  RH  071%=      5-min Rain = 0
KASR 180200Z 00006KT 09/03 A3008 RMK A01 T00860030  RH  069%=      5-min Rain = 0
KASR 180205Z 01006KT 09/03 A3008 RMK A01 T00880030  RH  068%=      5-min Rain = 0
KASR 180210Z 02004KT 09/03 A3008 RMK A01 T00890031  RH  068%=      5-min Rain = 0
KASR 180215Z 01003KT 09/03 A3009 RMK A01 T00890031  RH  067%=      5-min Rain = 0
KASR 180220Z 01002KT 09/03 A3009 RMK A01 T00900031  RH  067%=      5-min Rain = 0
KASR 180225Z 02003KT 09/03 A3009 RMK A01 T00900030  RH  067%=      5-min Rain = 0
KASR 180230Z 03004KT 09/03 A3009 RMK A01 T00890031  RH  068%=      5-min Rain = 0
KASR 180235Z 06003KT 09/03 A3009 RMK A01 T00880030  RH  068%=      5-min Rain = 0
KASR 180240Z 10002KT 08/03 A3009 RMK A01 T00790027  RH  071%=      5-min Rain = 0
KASR 180245Z 11002KT 07/03 A301 RMK A01 T00730026  RH  073%=      5-min Rain = 0
KASR 180250Z 12001KT 07/02 A301 RMK A01 T00670023  RH  074%=      5-min Rain = 0
KASR 180255Z 12001KT 06/02 A301 RMK A01 T00620023  RH  077%=      5-min Rain = 0
KASR 180300Z 08001KT 06/02 A301 RMK A01 T00580021  RH  078%=      5-min Rain = 0
KASR 180305Z 06002KT 06/02 A301 RMK A01 T00560023  RH  080%=      5-min Rain = 0
KASR 180310Z 04002KT 06/03 A301 RMK A01 T00560025  RH  081%=      5-min Rain = 0
KASR 180315Z 04000KT 06/03 A301 RMK A01 T00570027  RH  082%=      5-min Rain = 0
KASR 180320Z 21001KT 06/03 A301 RMK A01 T00600026  RH  080%=      5-min Rain = 0
KASR 180325Z 20002KT 06/03 A301 RMK A01 T00580025  RH  081%=      5-min Rain = 0
KASR 180330Z 21004KT 05/03 A301 RMK A01 T00540025  RH  082%=      5-min Rain = 0
KASR 180335Z 22006KT 06/03 A301 RMK A01 T00560026  RH  082%=      5-min Rain = 0
KASR 180340Z 22005KT 06/03 A301 RMK A01 T00580025  RH  081%=      5-min Rain = 0
KASR 180345Z 21005KT 06/03 A301 RMK A01 T00580025  RH  081%=      5-min Rain = 0
KASR 180350Z 20005KT 06/03 A301 RMK A01 T00580025  RH  080%=      5-min Rain = 0
KASR 180355Z 22004KT 06/03 A301 RMK A01 T00600026  RH  080%=      5-min Rain = 0
KASR 180400Z 21004KT 06/03 A301 RMK A01 T00620026  RH  078%=      5-min Rain = 0
KASR 180405Z 22004KT 06/02 A3009 RMK A01 T00600024  RH  079%=      5-min Rain = 0
KASR 180410Z 22004KT 06/03 A3009 RMK A01 T00610025  RH  079%=      5-min Rain = 0
KASR 180415Z 22004KT 06/03 A3009 RMK A01 T00600025  RH  079%=      5-min Rain = 0
KASR 180420Z 20005KT 06/02 A3009 RMK A01 T00600024  RH  079%=      5-min Rain = 0
KASR 180425Z 19005KT 06/02 A3009 RMK A01 T00560023  RH  080%=      5-min Rain = 0
KASR 180430Z 18005KT 06/02 A3009 RMK A01 T00560023  RH  080%=      5-min Rain = 0
KASR 180435Z 19006KT 05/02 A3009 RMK A01 T00540023  RH  082%=      5-min Rain = 0
KASR 180440Z 19005KT 05/02 A3009 RMK A01 T00520023  RH  082%=      5-min Rain = 0
KASR 180445Z 19005KT 05/02 A3009 RMK A01 T00510022  RH  083%=      5-min Rain = 0
KASR 180450Z 19005KT 05/02 A3009 RMK A01 T00490022  RH  083%=      5-min Rain = 0
KASR 180455Z 19005KT 05/02 A3008 RMK A01 T00480021  RH  084%=      5-min Rain = 0
KASR 180500Z 19005KT 05/02 A3008 RMK A01 T00490023  RH  084%=      5-min Rain = 0
KASR 180505Z 20005KT 05/03 A3008 RMK A01 T00520025  RH  084%=      5-min Rain = 0
KASR 180510Z 20004KT 05/02 A3008 RMK A01 T00520023  RH  083%=      5-min Rain = 0
KASR 180515Z 20005KT 05/02 A3008 RMK A01 T00510023  RH  083%=      5-min Rain = 0
KASR 180520Z 21005KT 05/02 A3008 RMK A01 T00500024  RH  084%=      5-min Rain = 0
KASR 180525Z 22004KT 05/02 A3007 RMK A01 T00520023  RH  083%=      5-min Rain = 0
KASR 180530Z 22003KT 05/02 A3007 RMK A01 T00520024  RH  083%=      5-min Rain = 0
KASR 180535Z 21003KT 05/02 A3007 RMK A01 T00540023  RH  082%=      5-min Rain = 0
KASR 180540Z 21004KT 05/02 A3007 RMK A01 T00520021  RH  081%=      5-min Rain = 0
KASR 180545Z 21004KT 05/02 A3007 RMK A01 T00490021  RH  083%=      5-min Rain = 0
KASR 180550Z 21005KT 05/02 A3006 RMK A01 T00480022  RH  084%=      5-min Rain = 0
KASR 180555Z 20005KT 05/02 A3006 RMK A01 T00490022  RH  084%=      5-min Rain = 0

Page generated in 0.0089 seconds.